Hwange National Park, Zimbabwe
Current Conditions -  °F | °C
As of 4:00 PM on Wednesday 28 Jan 2015 (Local Time) from FBKE Reporting Station
Thunderstorm Thunderstorm  
Wind Chill: 88°   Ceiling: Unl
Heat Index: 88°   Visibility: 6mi
Dew Point: 63°   Wind: 15mph
Humidity: 43%   Direction: 110°ESE
Pressure: 30.03"   Gusts: NA
Location:  18.63°S, 27.03°E
Report Text: FBKE 281400Z 11013KT 9999 TS SCT035 FEW040CB 31/17 Q1017
Loading
Personal Weather Stations






























Interactive Weather Map New forecast layout! Learn more

10-Day Weather Forecast

Advertisements
Track Severe Weather on mobile